Time;durP1;ratioP1;P1;durP2;ratioP2;P2;SDS_P1;SDS_P2;PMS_P1;PMS_P2;Temp;Humidity;BMP_temperature;BMP_pressure;BME280_temperature;BME280_humidity;BME280_pressure;Samples;Min_cycle;Max_cycle;Signal;HPM_P1;HPM_P2
2021/03/22 00:00:51;;;;;;;26.00;5.07;;;;;;;;;;5117382;28;20373;-78
2021/03/22 00:03:18;;;;;;;19.65;4.05;;;;;;;;;;5098521;28;20027;-78
2021/03/22 00:05:44;;;;;;;26.50;6.32;;;;;;;;;;5116408;28;20448;-78
2021/03/22 00:08:10;;;;;;;27.40;4.43;;;;;;;;;;5116911;28;20067;-78
2021/03/22 00:10:40;;;;;;;25.33;4.35;;;;;;;;;;5098616;28;20061;-78
2021/03/22 00:13:06;;;;;;;24.52;3.80;;;;;;;;;;5078071;28;20032;-78
2021/03/22 00:15:33;;;;;;;22.00;3.50;;;;;;;;;;5096309;28;20050;-78
2021/03/22 00:17:59;;;;;;;24.05;4.25;;;;;;;;;;5095812;28;20036;-78
2021/03/22 00:20:28;;;;;;;19.00;3.65;;;;;;;;;;5097376;28;20032;-78
2021/03/22 00:22:53;;;;;;;31.00;5.28;;;;;;;;;;5078594;28;20032;-78
2021/03/22 00:25:19;;;;;;;23.55;3.80;;;;;;;;;;5097062;28;20034;-78
2021/03/22 00:27:46;;;;;;;24.17;4.47;;;;;;;;;;5098334;28;20032;-79
2021/03/22 00:30:21;;;;;;;17.90;3.78;;;;;;;;;;5083442;28;20043;-79
2021/03/22 00:32:48;;;;;;;27.97;5.00;;;;;;;;;;5099847;28;20031;-79
2021/03/22 00:35:13;;;;;;;24.70;4.68;;;;;;;;;;5083944;28;20290;-79
2021/03/22 00:37:39;;;;;;;27.20;4.30;;;;;;;;;;5102739;28;20039;-79
2021/03/22 00:40:05;;;;;;;23.50;4.70;;;;;;;;;;5103479;28;20414;-79
2021/03/22 00:42:31;;;;;;;26.90;5.57;;;;;;;;;;5101628;28;20040;-79
2021/03/22 00:44:56;;;;;;;27.60;4.38;;;;;;;;;;5116136;28;20058;-79
2021/03/22 00:47:22;;;;;;;25.65;4.43;;;;;;;;;;5105036;28;20473;-79
2021/03/22 00:49:47;;;;;;;23.33;4.68;;;;;;;;;;5122748;28;20408;-79
2021/03/22 00:52:14;;;;;;;22.88;4.03;;;;;;;;;;5103824;28;20040;-79
2021/03/22 00:54:40;;;;;;;26.48;7.00;;;;;;;;;;5121768;28;20038;-79
2021/03/22 00:57:09;;;;;;;20.20;4.07;;;;;;;;;;5086223;28;20031;-79
2021/03/22 00:59:35;;;;;;;32.58;4.82;;;;;;;;;;5121847;28;20032;-79
2021/03/22 01:02:01;;;;;;;34.70;5.78;;;;;;;;;;5085949;28;20046;-79
2021/03/22 01:04:26;;;;;;;29.63;5.25;;;;;;;;;;5120782;28;20035;-79
2021/03/22 01:06:52;;;;;;;31.00;5.57;;;;;;;;;;5120170;28;20042;-79
2021/03/22 01:09:18;;;;;;;27.85;4.63;;;;;;;;;;5119562;28;20036;-79
2021/03/22 01:11:43;;;;;;;24.63;4.35;;;;;;;;;;5117712;28;20443;-78
2021/03/22 01:14:09;;;;;;;19.63;4.43;;;;;;;;;;5116746;28;20040;-78
2021/03/22 01:16:37;;;;;;;31.80;5.55;;;;;;;;;;5115480;28;20141;-78
2021/03/22 01:19:25;;;;;;;24.52;4.68;;;;;;;;;;5116050;28;20517;-78
2021/03/22 01:21:54;;;;;;;25.40;4.70;;;;;;;;;;5097057;28;20027;-78
2021/03/22 01:24:22;;;;;;;19.95;4.50;;;;;;;;;;5094633;28;20401;-78
2021/03/22 01:26:50;;;;;;;21.17;3.30;;;;;;;;;;5095126;28;20026;-78
2021/03/22 01:29:21;;;;;;;27.85;4.82;;;;;;;;;;5095089;28;20079;-78
2021/03/22 01:31:48;;;;;;;29.63;5.03;;;;;;;;;;5095853;28;20032;-78
2021/03/22 01:34:14;;;;;;;31.52;4.25;;;;;;;;;;5095348;28;20036;-78
2021/03/22 01:36:41;;;;;;;17.75;3.38;;;;;;;;;;5096320;28;20032;-78
2021/03/22 01:39:29;;;;;;;17.58;4.10;;;;;;;;;;5096157;28;20036;-78
2021/03/22 01:42:00;;;;;;;21.10;4.50;;;;;;;;;;5096429;28;20032;-78
2021/03/22 01:44:44;;;;;;;16.42;3.83;;;;;;;;;;5077610;28;20378;-78
2021/03/22 01:47:15;;;;;;;23.85;6.75;;;;;;;;;;5095239;28;20059;-78
2021/03/22 01:49:49;;;;;;;14.90;3.45;;;;;;;;;;5096155;28;20131;-79
2021/03/22 01:52:15;;;;;;;16.10;4.63;;;;;;;;;;5095470;28;20036;-78
2021/03/22 01:54:41;;;;;;;17.67;3.88;;;;;;;;;;5096064;28;20569;-78
2021/03/22 01:57:24;;;;;;;22.17;4.85;;;;;;;;;;5096954;28;20081;-78
2021/03/22 01:59:51;;;;;;;25.77;5.65;;;;;;;;;;5097208;28;20028;-79
2021/03/22 02:02:17;;;;;;;20.40;3.47;;;;;;;;;;5097894;28;20028;-79
2021/03/22 02:04:42;;;;;;;19.27;3.80;;;;;;;;;;5096452;28;20061;-79
2021/03/22 02:07:08;;;;;;;22.98;5.47;;;;;;;;;;5076274;28;20039;-78
2021/03/22 02:09:33;;;;;;;23.45;5.03;;;;;;;;;;5092158;28;20050;-77
2021/03/22 02:11:59;;;;;;;24.05;4.30;;;;;;;;;;5093426;28;20047;-78
2021/03/22 02:14:25;;;;;;;17.95;3.40;;;;;;;;;;5093744;28;20024;-77
2021/03/22 02:17:13;;;;;;;18.67;3.65;;;;;;;;;;5093482;28;20103;-77
2021/03/22 02:20:23;;;;;;;16.98;3.42;;;;;;;;;;5075363;28;20494;-77
2021/03/22 02:23:01;;;;;;;16.63;3.63;;;;;;;;;;5093326;28;20042;-77
2021/03/22 02:25:34;;;;;;;19.48;4.75;;;;;;;;;;5093337;28;20126;-77
2021/03/22 02:28:24;;;;;;;21.25;4.43;;;;;;;;;;5093385;28;20121;-77
2021/03/22 02:31:23;;;;;;;20.15;4.35;;;;;;;;;;5093247;28;20170;-77
2021/03/22 02:34:22;;;;;;;21.80;4.00;;;;;;;;;;5093205;28;20032;-78
2021/03/22 02:37:05;;;;;;;22.33;4.75;;;;;;;;;;5092621;28;20035;-77
2021/03/22 02:39:41;;;;;;;18.73;4.43;;;;;;;;;;5100720;28;20111;-77
2021/03/22 02:42:10;;;;;;;14.45;3.70;;;;;;;;;;5098463;28;20461;-78
2021/03/22 02:44:37;;;;;;;21.73;3.83;;;;;;;;;;5117871;28;20176;-77
2021/03/22 02:47:05;;;;;;;14.77;3.40;;;;;;;;;;5117680;28;20054;-77
2021/03/22 02:49:33;;;;;;;20.92;4.47;;;;;;;;;;5117701;28;20443;-77
2021/03/22 02:52:05;;;;;;;22.65;3.90;;;;;;;;;;5117666;28;20474;-77
2021/03/22 02:54:51;;;;;;;14.45;4.00;;;;;;;;;;5117034;28;20038;-77
2021/03/22 02:57:23;;;;;;;;;;;;;;;;;;5099484;28;20454;-77
2021/03/22 02:59:55;;;;;;;22.35;4.78;;;;;;;;;;5099383;28;19915;-77
2021/03/22 03:02:22;;;;;;;21.80;4.13;;;;;;;;;;5117598;28;20393;-77
2021/03/22 03:04:47;;;;;;;14.75;4.05;;;;;;;;;;5117154;28;20036;-77
2021/03/22 03:07:24;;;;;;;12.82;3.63;;;;;;;;;;5116940;28;20036;-77
2021/03/22 03:09:50;;;;;;;18.05;3.40;;;;;;;;;;5116138;28;20071;-77
2021/03/22 03:12:25;;;;;;;18.63;3.80;;;;;;;;;;5117062;28;20108;-77
2021/03/22 03:14:53;;;;;;;23.48;3.97;;;;;;;;;;5117657;28;20031;-76
2021/03/22 03:17:21;;;;;;;23.10;5.10;;;;;;;;;;5084618;28;20081;-78
2021/03/22 03:19:52;;;;;;;14.63;3.53;;;;;;;;;;5119031;28;20126;-77
2021/03/22 03:22:20;;;;;;;11.85;3.63;;;;;;;;;;5116981;28;20156;-77
2021/03/22 03:24:46;;;;;;;22.75;4.68;;;;;;;;;;5116570;28;20039;-76
2021/03/22 03:27:12;;;;;;;16.77;3.35;;;;;;;;;;5118021;28;20035;-79
2021/03/22 03:29:39;;;;;;;16.73;4.35;;;;;;;;;;5100733;28;20560;-78
2021/03/22 03:32:07;;;;;;;18.98;3.78;;;;;;;;;;5118752;28;20061;-78
2021/03/22 03:34:33;;;;;;;16.73;4.20;;;;;;;;;;5099982;28;20036;-78
2021/03/22 03:36:58;;;;;;;22.85;4.45;;;;;;;;;;5117909;28;20039;-78
2021/03/22 03:39:24;;;;;;;19.98;4.07;;;;;;;;;;5118661;28;20093;-78
2021/03/22 03:41:50;;;;;;;12.18;3.30;;;;;;;;;;5118330;28;20068;-78
2021/03/22 03:44:16;;;;;;;24.00;5.97;;;;;;;;;;5120246;28;20070;-78
2021/03/22 03:46:42;;;;;;;22.60;4.70;;;;;;;;;;5122316;28;20035;-79
2021/03/22 03:49:08;;;;;;;26.58;4.80;;;;;;;;;;5120969;28;20517;-81
2021/03/22 03:51:35;;;;;;;20.63;5.82;;;;;;;;;;5118038;28;20439;-79
2021/03/22 03:54:00;;;;;;;27.58;4.20;;;;;;;;;;5116394;28;20046;-76
2021/03/22 03:56:26;;;;;;;18.13;4.80;;;;;;;;;;5116204;28;20031;-76
2021/03/22 03:58:55;;;;;;;20.85;4.93;;;;;;;;;;5116428;28;20028;-77
2021/03/22 04:01:21;;;;;;;24.27;4.28;;;;;;;;;;5096768;28;20458;-77
2021/03/22 04:03:47;;;;;;;23.15;4.45;;;;;;;;;;5097943;28;20034;-76
2021/03/22 04:06:25;;;;;;;20.70;5.18;;;;;;;;;;5097973;28;20035;-77
2021/03/22 04:08:59;;;;;;;18.27;4.30;;;;;;;;;;5116073;28;20042;-77
2021/03/22 04:11:29;;;;;;;23.08;5.20;;;;;;;;;;5114764;28;20088;-77
2021/03/22 04:13:55;;;;;;;23.38;4.25;;;;;;;;;;5115976;28;20046;-77
2021/03/22 04:16:23;;;;;;;20.38;4.10;;;;;;;;;;5115906;28;20036;-77
2021/03/22 04:18:49;;;;;;;28.60;6.30;;;;;;;;;;5115715;28;20089;-77
2021/03/22 04:21:20;;;;;;;21.67;4.07;;;;;;;;;;5116015;28;20118;-77
2021/03/22 04:23:46;;;;;;;17.48;3.63;;;;;;;;;;5097664;28;20027;-77
2021/03/22 04:26:12;;;;;;;16.00;4.35;;;;;;;;;;5115345;28;20579;-77
2021/03/22 04:28:40;;;;;;;26.90;5.15;;;;;;;;;;5115668;28;20039;-77
2021/03/22 04:31:06;;;;;;;17.58;4.07;;;;;;;;;;5115716;28;20474;-77
2021/03/22 04:33:33;;;;;;;20.20;4.55;;;;;;;;;;5115684;28;20084;-77
2021/03/22 04:36:00;;;;;;;19.17;5.07;;;;;;;;;;5097111;28;20065;-77
2021/03/22 04:38:25;;;;;;;23.10;5.15;;;;;;;;;;5115291;28;20032;-77
2021/03/22 04:40:51;;;;;;;15.68;3.95;;;;;;;;;;5115186;28;20481;-77
2021/03/22 04:43:16;;;;;;;13.02;3.00;;;;;;;;;;5114618;28;20050;-77
2021/03/22 04:45:42;;;;;;;14.48;4.05;;;;;;;;;;5115313;28;20031;-77
2021/03/22 04:48:08;;;;;;;17.45;3.40;;;;;;;;;;5115222;28;20059;-77
2021/03/22 04:50:34;;;;;;;17.73;3.33;;;;;;;;;;5115247;28;20035;-77
2021/03/22 04:52:59;;;;;;;9.55;3.70;;;;;;;;;;5115305;28;20512;-77
2021/03/22 04:55:26;;;;;;;8.88;2.90;;;;;;;;;;5096806;28;20047;-77
2021/03/22 04:57:52;;;;;;;9.07;2.67;;;;;;;;;;5115257;28;20037;-77
2021/03/22 05:00:31;;;;;;;7.22;2.80;;;;;;;;;;5096644;28;20385;-77
2021/03/22 05:02:57;;;;;;;13.27;3.17;;;;;;;;;;5096784;28;20024;-77
2021/03/22 05:05:24;;;;;;;10.27;4.00;;;;;;;;;;5096302;28;20105;-76
2021/03/22 05:07:50;;;;;;;13.73;4.47;;;;;;;;;;5114657;28;20371;-77
2021/03/22 05:10:26;;;;;;;10.27;3.60;;;;;;;;;;5096337;28;20372;-77
2021/03/22 05:12:52;;;;;;;17.77;4.35;;;;;;;;;;5096638;28;20033;-77
2021/03/22 05:15:18;;;;;;;12.88;3.85;;;;;;;;;;5114450;28;20050;-77
2021/03/22 05:17:43;;;;;;;17.52;4.88;;;;;;;;;;5114785;28;20477;-77
2021/03/22 05:20:17;;;;;;;14.45;4.25;;;;;;;;;;5114521;28;20429;-77
2021/03/22 05:22:42;;;;;;;7.72;3.85;;;;;;;;;;5114840;28;20073;-77
2021/03/22 05:25:08;;;;;;;13.70;4.13;;;;;;;;;;5114339;28;20023;-77
2021/03/22 05:27:33;;;;;;;8.93;3.40;;;;;;;;;;5095994;28;20062;-77
2021/03/22 05:29:58;;;;;;;11.48;4.32;;;;;;;;;;5115437;28;20070;-78
2021/03/22 05:32:35;;;;;;;14.00;4.70;;;;;;;;;;5116902;28;20047;-78
2021/03/22 05:35:01;;;;;;;15.43;5.00;;;;;;;;;;5099559;28;20066;-78
2021/03/22 05:37:27;;;;;;;11.02;4.28;;;;;;;;;;5099424;28;20031;-78
2021/03/22 05:39:53;;;;;;;10.63;3.28;;;;;;;;;;5117488;28;20027;-78
2021/03/22 05:42:40;;;;;;;12.05;3.35;;;;;;;;;;5117623;28;20084;-78
2021/03/22 05:45:27;;;;;;;18.02;3.88;;;;;;;;;;5095774;28;20032;-78
2021/03/22 05:48:02;;;;;;;17.05;3.70;;;;;;;;;;5098061;28;20051;-78
2021/03/22 05:50:44;;;;;;;12.32;3.92;;;;;;;;;;5098440;28;20028;-78
2021/03/22 05:53:40;;;;;;;15.18;4.80;;;;;;;;;;5098015;28;20035;-79
2021/03/22 05:56:13;;;;;;;13.68;4.53;;;;;;;;;;5098046;28;20084;-78
2021/03/22 05:58:56;;;;;;;18.58;4.70;;;;;;;;;;5097389;28;20028;-78
2021/03/22 06:01:34;;;;;;;15.77;4.15;;;;;;;;;;5097116;28;20093;-78
2021/03/22 06:04:33;;;;;;;14.15;4.28;;;;;;;;;;5097283;28;20118;-78
2021/03/22 06:06:59;;;;;;;20.60;6.03;;;;;;;;;;5096814;28;20104;-78
2021/03/22 06:09:41;;;;;;;14.52;4.00;;;;;;;;;;5098239;28;20039;-79
2021/03/22 06:12:20;;;;;;;15.85;4.50;;;;;;;;;;5096409;28;20044;-79
2021/03/22 06:14:52;;;;;;;18.75;5.85;;;;;;;;;;5105381;28;20488;-79
2021/03/22 06:17:26;;;;;;;12.52;4.25;;;;;;;;;;5113832;28;20044;-78
2021/03/22 06:20:00;;;;;;;13.75;4.55;;;;;;;;;;5117745;28;20039;-78
2021/03/22 06:22:30;;;;;;;19.85;4.80;;;;;;;;;;5117878;28;20114;-79
2021/03/22 06:24:56;;;;;;;17.63;5.82;;;;;;;;;;5098965;28;20085;-78
2021/03/22 06:27:22;;;;;;;19.48;4.75;;;;;;;;;;5117828;28;20035;-79
2021/03/22 06:29:49;;;;;;;27.20;5.60;;;;;;;;;;5120402;28;20500;-79
2021/03/22 06:32:22;;;;;;;14.88;4.70;;;;;;;;;;5120154;28;20057;-79
2021/03/22 06:34:55;;;;;;;13.43;4.90;;;;;;;;;;5120129;28;20089;-79
2021/03/22 06:37:26;;;;;;;24.92;7.43;;;;;;;;;;5118843;28;20034;-80
2021/03/22 06:40:28;;;;;;;21.92;5.93;;;;;;;;;;5089582;28;20063;-79
2021/03/22 06:43:02;;;;;;;22.77;5.90;;;;;;;;;;5099383;28;20032;-78
2021/03/22 06:45:34;;;;;;;19.42;5.90;;;;;;;;;;5079396;28;20039;-78
2021/03/22 06:48:27;;;;;;;23.63;8.00;;;;;;;;;;5097404;28;20058;-78
2021/03/22 06:51:15;;;;;;;12.88;4.72;;;;;;;;;;5097981;28;20080;-79
2021/03/22 06:53:43;;;;;;;18.95;7.00;;;;;;;;;;5097633;28;20036;-78
2021/03/22 06:56:37;;;;;;;22.80;6.07;;;;;;;;;;5079118;28;20032;-79
2021/03/22 06:59:08;;;;;;;21.50;5.60;;;;;;;;;;5096969;28;20119;-79
2021/03/22 07:01:33;;;;;;;21.15;7.05;;;;;;;;;;5078535;28;20040;-79
2021/03/22 07:04:18;;;;;;;19.75;5.55;;;;;;;;;;5097220;28;20059;-79
2021/03/22 07:06:43;;;;;;;28.45;6.45;;;;;;;;;;5097273;28;20027;-79
2021/03/22 07:09:30;;;;;;;26.98;7.05;;;;;;;;;;5107642;28;20452;-79
2021/03/22 07:11:55;;;;;;;19.10;5.65;;;;;;;;;;5117662;28;20043;-78
2021/03/22 07:14:26;;;;;;;21.75;5.78;;;;;;;;;;5099691;28;20114;-79
2021/03/22 07:17:03;;;;;;;19.00;5.43;;;;;;;;;;5100139;28;20032;-79
2021/03/22 07:19:28;;;;;;;21.45;5.88;;;;;;;;;;5118022;28;20123;-78
2021/03/22 07:22:03;;;;;;;21.75;5.57;;;;;;;;;;5117527;28;20051;-79
2021/03/22 07:24:51;;;;;;;22.48;5.20;;;;;;;;;;5099523;28;20043;-79
2021/03/22 07:27:34;;;;;;;19.88;4.65;;;;;;;;;;5100041;28;20036;-79
2021/03/22 07:30:27;;;;;;;23.05;5.53;;;;;;;;;;5121215;28;20035;-78
2021/03/22 07:32:58;;;;;;;18.67;4.68;;;;;;;;;;5120890;28;20055;-78
2021/03/22 07:35:48;;;;;;;17.23;5.93;;;;;;;;;;5121319;28;20082;-79
2021/03/22 07:38:32;;;;;;;21.98;6.50;;;;;;;;;;5119431;28;20043;-75
2021/03/22 07:41:21;;;;;;;14.60;5.75;;;;;;;;;;5100043;28;20036;-77
2021/03/22 07:44:05;;;;;;;23.85;5.60;;;;;;;;;;5099189;28;20031;-78
2021/03/22 07:47:00;;;;;;;14.70;6.00;;;;;;;;;;5116904;28;20062;-77
2021/03/22 07:49:38;;;;;;;19.63;5.68;;;;;;;;;;5116442;28;20039;-79
2021/03/22 07:52:21;;;;;;;21.08;5.68;;;;;;;;;;5116735;28;20092;-76
2021/03/22 07:55:01;;;;;;;20.92;5.82;;;;;;;;;;5118292;28;20103;-79
2021/03/22 07:57:32;;;;;;;20.75;5.38;;;;;;;;;;5116998;28;20087;-78
2021/03/22 08:00:21;;;;;;;18.98;5.25;;;;;;;;;;5116339;28;20373;-75
2021/03/22 08:03:03;;;;;;;34.20;6.57;;;;;;;;;;5116723;28;20119;-78
2021/03/22 08:05:38;;;;;;;24.40;6.53;;;;;;;;;;5116504;28;20065;-78
2021/03/22 08:08:47;;;;;;;18.67;5.40;;;;;;;;;;5117425;28;20039;-78
2021/03/22 08:11:35;;;;;;;21.45;6.00;;;;;;;;;;5112287;28;20071;-80
2021/03/22 08:14:22;;;;;;;25.92;5.65;;;;;;;;;;5098870;28;20401;-77
2021/03/22 08:17:19;;;;;;;18.63;6.15;;;;;;;;;;5117837;28;20369;-77
2021/03/22 08:19:53;;;;;;;18.35;5.35;;;;;;;;;;5116278;28;20467;-77
2021/03/22 08:22:27;;;;;;;23.67;6.47;;;;;;;;;;5116826;28;20027;-77
2021/03/22 08:25:22;;;;;;;18.88;5.88;;;;;;;;;;5097446;28;20031;-78
2021/03/22 08:28:02;;;;;;;19.52;5.88;;;;;;;;;;5115495;28;20040;-77
2021/03/22 08:30:40;;;;;;;19.52;5.68;;;;;;;;;;5094989;28;20035;-78
2021/03/22 08:33:17;;;;;;;12.13;4.70;;;;;;;;;;5115203;28;20097;-76
2021/03/22 08:35:51;;;;;;;26.67;6.70;;;;;;;;;;5097406;28;20111;-76
2021/03/22 08:38:34;;;;;;;21.88;6.35;;;;;;;;;;5114813;28;20359;-77
2021/03/22 08:41:00;;;;;;;24.38;5.05;;;;;;;;;;5114926;28;20031;-76
2021/03/22 08:43:50;;;;;;;19.92;5.43;;;;;;;;;;5115000;28;20441;-77
2021/03/22 08:46:18;;;;;;;25.63;6.72;;;;;;;;;;5114939;28;20035;-77
2021/03/22 08:48:44;;;;;;;22.88;6.50;;;;;;;;;;5115449;28;20427;-77
2021/03/22 08:51:23;;;;;;;14.38;5.85;;;;;;;;;;5115398;28;20027;-77
2021/03/22 08:53:52;;;;;;;19.45;6.38;;;;;;;;;;5115078;28;20039;-77
2021/03/22 08:56:40;;;;;;;24.05;6.00;;;;;;;;;;5097546;28;20036;-78
2021/03/22 08:59:08;;;;;;;17.88;5.63;;;;;;;;;;5115662;28;20039;-76
2021/03/22 09:01:38;;;;;;;20.08;5.65;;;;;;;;;;5114905;28;20050;-77
2021/03/22 09:04:33;;;;;;;17.48;5.45;;;;;;;;;;5093113;28;20516;-76
2021/03/22 09:07:10;;;;;;;19.38;5.93;;;;;;;;;;5094614;28;20420;-77
2021/03/22 09:09:42;;;;;;;21.63;5.50;;;;;;;;;;5095134;28;20077;-77
2021/03/22 09:12:39;;;;;;;19.10;5.55;;;;;;;;;;5096408;28;20036;-79
2021/03/22 09:15:31;;;;;;;18.83;6.93;;;;;;;;;;5088657;28;20082;-76
2021/03/22 09:18:02;;;;;;;18.25;5.18;;;;;;;;;;5094258;28;20028;-77
2021/03/22 09:20:31;;;;;;;15.18;4.72;;;;;;;;;;5094523;28;20032;-77
2021/03/22 09:23:16;;;;;;;16.90;5.63;;;;;;;;;;5101740;28;20137;-76
2021/03/22 09:25:48;;;;;;;20.08;5.40;;;;;;;;;;5114326;28;20046;-76
2021/03/22 09:28:26;;;;;;;14.60;5.28;;;;;;;;;;5110662;28;20040;-76
2021/03/22 09:30:56;;;;;;;11.57;3.55;;;;;;;;;;5094473;28;20035;-76
2021/03/22 09:33:49;;;;;;;17.05;4.20;;;;;;;;;;5113537;28;20032;-76
2021/03/22 09:36:30;;;;;;;17.05;4.30;;;;;;;;;;5112394;28;20088;-76
2021/03/22 09:38:57;;;;;;;8.35;4.00;;;;;;;;;;5113750;28;20035;-76
2021/03/22 09:42:04;;;;;;;10.15;3.53;;;;;;;;;;5113203;28;20481;-76
2021/03/22 09:44:37;;;;;;;12.65;2.88;;;;;;;;;;5079119;28;20047;-76
2021/03/22 09:47:14;;;;;;;14.63;3.47;;;;;;;;;;5114083;28;20054;-76
2021/03/22 09:49:59;;;;;;;6.10;2.72;;;;;;;;;;5113865;28;20039;-76
2021/03/22 09:52:28;;;;;;;8.18;2.15;;;;;;;;;;5114148;28;20035;-77
2021/03/22 09:54:55;;;;;;;13.02;4.22;;;;;;;;;;5095883;28;20071;-76
2021/03/22 09:57:35;;;;;;;11.50;3.42;;;;;;;;;;5114149;28;20032;-77
2021/03/22 10:00:25;;;;;;;10.65;3.28;;;;;;;;;;5095541;28;20481;-76
2021/03/22 10:02:59;;;;;;;11.50;3.58;;;;;;;;;;5113838;28;20027;-76
2021/03/22 10:05:25;;;;;;;11.65;3.85;;;;;;;;;;5095573;28;20036;-76
2021/03/22 10:08:10;;;;;;;15.20;3.63;;;;;;;;;;5114220;28;20386;-75
2021/03/22 10:10:39;;;;;;;12.30;4.88;;;;;;;;;;5113779;28;20027;-75
2021/03/22 10:13:21;;;;;;;8.48;3.58;;;;;;;;;;5113647;28;20457;-76
2021/03/22 10:15:57;;;;;;;16.08;4.05;;;;;;;;;;5099530;28;20077;-76
2021/03/22 10:18:28;;;;;;;;;;;;;;;;;;5093972;28;20039;-76
2021/03/22 10:21:05;;;;;;;14.07;4.05;;;;;;;;;;5093551;28;20006;-75
2021/03/22 10:23:35;;;;;;;7.60;3.22;;;;;;;;;;5093421;28;20135;-76
2021/03/22 10:26:13;;;;;;;9.50;3.40;;;;;;;;;;5092677;28;20566;-76
2021/03/22 10:28:41;;;;;;;13.38;3.92;;;;;;;;;;5093457;28;20028;-76
2021/03/22 10:31:33;;;;;;;9.55;3.50;;;;;;;;;;5093193;28;20028;-76
2021/03/22 10:34:01;;;;;;;9.75;3.58;;;;;;;;;;5090016;28;20044;-76
2021/03/22 10:36:29;;;;;;;10.18;3.47;;;;;;;;;;5075203;28;20036;-76
2021/03/22 10:38:56;;;;;;;13.35;3.42;;;;;;;;;;5078506;28;20409;-76
2021/03/22 10:41:34;;;;;;;14.25;3.80;;;;;;;;;;5113137;28;20035;-76
2021/03/22 10:44:28;;;;;;;10.10;3.58;;;;;;;;;;5113647;28;20465;-76
2021/03/22 10:47:09;;;;;;;10.35;4.10;;;;;;;;;;5105210;28;20083;-76
2021/03/22 10:49:34;;;;;;;11.43;3.42;;;;;;;;;;5095235;28;20027;-76
2021/03/22 10:52:01;;;;;;;11.38;3.38;;;;;;;;;;5113674;28;20062;-76
2021/03/22 10:54:42;;;;;;;14.88;4.60;;;;;;;;;;5113090;28;20028;-76
2021/03/22 10:57:23;;;;;;;12.35;3.88;;;;;;;;;;5113419;28;20031;-76
2021/03/22 10:59:52;;;;;;;12.32;4.13;;;;;;;;;;5113480;28;20032;-76
2021/03/22 11:02:36;;;;;;;11.98;3.53;;;;;;;;;;5114612;28;20047;-76
2021/03/22 11:05:10;;;;;;;8.50;3.72;;;;;;;;;;5099137;28;20480;-76
2021/03/22 11:07:36;;;;;;;8.60;3.83;;;;;;;;;;5117183;28;20118;-76
2021/03/22 11:10:14;;;;;;;10.25;3.30;;;;;;;;;;5095397;28;20464;-76
2021/03/22 11:12:45;;;;;;;12.77;3.40;;;;;;;;;;5096757;28;20039;-76
2021/03/22 11:15:20;;;;;;;9.82;3.85;;;;;;;;;;5096644;28;20035;-76
2021/03/22 11:17:47;;;;;;;12.82;4.30;;;;;;;;;;5096828;28;20082;-76
2021/03/22 11:20:15;;;;;;;30.80;4.50;;;;;;;;;;5098732;28;20096;-76
2021/03/22 11:22:43;;;;;;;13.27;3.40;;;;;;;;;;5117043;28;20093;-76
2021/03/22 11:25:31;;;;;;;9.63;2.92;;;;;;;;;;5116900;28;20427;-76
2021/03/22 11:28:28;;;;;;;5.88;2.25;;;;;;;;;;5116847;28;20465;-76
2021/03/22 11:30:54;;;;;;;5.68;2.15;;;;;;;;;;5116359;28;20055;-76
2021/03/22 11:33:35;;;;;;;6.78;2.33;;;;;;;;;;5116756;28;20036;-76
2021/03/22 11:36:19;;;;;;;3.78;2.03;;;;;;;;;;5116730;28;20067;-76
2021/03/22 11:38:47;;;;;;;9.40;2.85;;;;;;;;;;5098692;28;20123;-76
2021/03/22 11:41:30;;;;;;;8.90;2.85;;;;;;;;;;5098209;28;20035;-76
2021/03/22 11:44:17;;;;;;;5.45;2.35;;;;;;;;;;5116447;28;20024;-76
2021/03/22 11:46:44;;;;;;;8.00;2.72;;;;;;;;;;5090616;28;20178;-76
2021/03/22 11:49:43;;;;;;;6.38;2.30;;;;;;;;;;5077136;28;20036;-76
2021/03/22 11:52:20;;;;;;;11.00;3.17;;;;;;;;;;5076454;28;20532;-76
2021/03/22 11:55:00;;;;;;;5.72;2.47;;;;;;;;;;5075873;28;20466;-76
2021/03/22 11:57:29;;;;;;;5.30;2.22;;;;;;;;;;5075610;28;20047;-76
2021/03/22 12:00:00;;;;;;;6.85;3.55;;;;;;;;;;5075746;28;20043;-76
2021/03/22 12:02:52;;;;;;;6.78;2.17;;;;;;;;;;5075585;28;20025;-76
2021/03/22 12:05:33;;;;;;;6.72;2.70;;;;;;;;;;5075350;28;20115;-76
2021/03/22 12:07:59;;;;;;;5.22;2.20;;;;;;;;;;5075702;28;20086;-76
2021/03/22 12:10:28;;;;;;;4.75;2.08;;;;;;;;;;5075228;28;20040;-75
2021/03/22 12:13:00;;;;;;;6.80;2.80;;;;;;;;;;5074765;28;20051;-75
2021/03/22 12:15:26;;;;;;;3.97;2.20;;;;;;;;;;5073630;28;20393;-75
2021/03/22 12:17:59;;;;;;;4.43;2.22;;;;;;;;;;5070293;28;20119;-76
2021/03/22 12:20:31;;;;;;;2.53;1.70;;;;;;;;;;5083442;28;20063;-76
2021/03/22 12:22:57;;;;;;;3.20;1.45;;;;;;;;;;5094948;28;20039;-76
2021/03/22 12:25:25;;;;;;;2.33;1.90;;;;;;;;;;5095268;28;20084;-77
2021/03/22 12:27:52;;;;;;;2.75;1.60;;;;;;;;;;5095566;28;20466;-75
2021/03/22 12:30:19;;;;;;;1.60;1.17;;;;;;;;;;5094464;28;20040;-77
2021/03/22 12:32:45;;;;;;;3.05;1.55;;;;;;;;;;5095478;28;20046;-78
2021/03/22 12:35:37;;;;;;;2.85;1.70;;;;;;;;;;5095842;28;20114;-78
2021/03/22 12:38:05;;;;;;;8.88;2.45;;;;;;;;;;5092528;28;20051;-76
2021/03/22 12:40:30;;;;;;;2.63;1.70;;;;;;;;;;5096190;28;20038;-77
2021/03/22 12:42:56;;;;;;;5.32;1.92;;;;;;;;;;5096899;28;20059;-78
2021/03/22 12:45:28;;;;;;;3.53;1.83;;;;;;;;;;5096820;28;20067;-78
2021/03/22 12:47:54;;;;;;;4.85;2.60;;;;;;;;;;5094103;28;20048;-77
2021/03/22 12:50:30;;;;;;;8.27;2.10;;;;;;;;;;5076718;28;20442;-77
2021/03/22 12:52:56;;;;;;;5.10;1.75;;;;;;;;;;5094883;28;20036;-77
2021/03/22 12:55:23;;;;;;;7.93;2.20;;;;;;;;;;5094353;28;20032;-76
2021/03/22 12:57:50;;;;;;;6.57;2.10;;;;;;;;;;5094835;28;20028;-76
2021/03/22 13:00:18;;;;;;;5.50;1.55;;;;;;;;;;5093942;28;20129;-77
2021/03/22 13:02:45;;;;;;;3.08;1.77;;;;;;;;;;5093999;28;20135;-77
2021/03/22 13:05:17;;;;;;;4.72;1.67;;;;;;;;;;5095715;28;20031;-77
2021/03/22 13:07:42;;;;;;;4.63;2.30;;;;;;;;;;5094690;28;20462;-77
2021/03/22 13:10:09;;;;;;;6.88;2.22;;;;;;;;;;5095604;28;20058;-78
2021/03/22 13:12:35;;;;;;;5.40;2.15;;;;;;;;;;5097688;28;20032;-78
2021/03/22 13:15:02;;;;;;;3.33;1.67;;;;;;;;;;5096858;28;20519;-78
2021/03/22 13:17:31;;;;;;;2.30;1.67;;;;;;;;;;5097030;28;20401;-78
2021/03/22 13:19:57;;;;;;;4.63;2.03;;;;;;;;;;5095540;28;20127;-78
2021/03/22 13:22:24;;;;;;;4.97;2.25;;;;;;;;;;5096007;28;20108;-78
2021/03/22 13:24:52;;;;;;;5.97;2.00;;;;;;;;;;5095391;28;20031;-78
2021/03/22 13:27:19;;;;;;;8.55;2.88;;;;;;;;;;5096370;28;20032;-78
2021/03/22 13:29:45;;;;;;;3.40;2.05;;;;;;;;;;5095897;28;20032;-78
2021/03/22 13:32:11;;;;;;;3.72;2.63;;;;;;;;;;5095609;28;20069;-78
2021/03/22 13:34:36;;;;;;;5.18;2.30;;;;;;;;;;5094765;28;20042;-78
2021/03/22 13:37:05;;;;;;;2.83;1.80;;;;;;;;;;5093301;28;20462;-78
2021/03/22 13:39:31;;;;;;;5.45;1.98;;;;;;;;;;5089731;28;20028;-78
2021/03/22 13:41:56;;;;;;;6.05;1.98;;;;;;;;;;5074808;28;20428;-78
2021/03/22 13:44:22;;;;;;;4.65;2.22;;;;;;;;;;5073834;28;20028;-78
2021/03/22 13:46:47;;;;;;;4.75;2.00;;;;;;;;;;5079989;28;20055;-78
2021/03/22 13:49:13;;;;;;;4.18;1.80;;;;;;;;;;5077248;28;20036;-78
2021/03/22 13:51:40;;;;;;;3.25;1.80;;;;;;;;;;5094869;28;20103;-76
2021/03/22 13:54:09;;;;;;;5.45;1.90;;;;;;;;;;5093741;28;20051;-78
2021/03/22 13:56:35;;;;;;;3.45;2.00;;;;;;;;;;5076535;28;20487;-78
2021/03/22 13:59:00;;;;;;;2.25;1.60;;;;;;;;;;5095040;28;20103;-78
2021/03/22 14:01:26;;;;;;;3.40;2.28;;;;;;;;;;5094925;28;20032;-78
2021/03/22 14:03:51;;;;;;;4.15;1.90;;;;;;;;;;5094443;28;20036;-78
2021/03/22 14:06:18;;;;;;;2.53;1.80;;;;;;;;;;5094888;28;20074;-78
2021/03/22 14:08:43;;;;;;;7.00;1.60;;;;;;;;;;5076872;28;20036;-77
2021/03/22 14:11:09;;;;;;;4.50;1.70;;;;;;;;;;5113152;28;20096;-78
2021/03/22 14:13:35;;;;;;;5.65;1.80;;;;;;;;;;5114534;28;20090;-77
2021/03/22 14:16:01;;;;;;;3.50;1.63;;;;;;;;;;5113817;28;20035;-76
2021/03/22 14:18:28;;;;;;;4.28;1.80;;;;;;;;;;5113936;28;20043;-78
2021/03/22 14:20:54;;;;;;;2.60;1.52;;;;;;;;;;5113672;28;20027;-78
2021/03/22 14:23:22;;;;;;;2.97;1.88;;;;;;;;;;5095522;28;20427;-77
2021/03/22 14:25:48;;;;;;;2.88;1.80;;;;;;;;;;5112077;28;20484;-77
2021/03/22 14:28:17;;;;;;;10.13;3.35;;;;;;;;;;5095414;28;20477;-77
2021/03/22 14:30:43;;;;;;;1.83;1.45;;;;;;;;;;5113825;28;20115;-77
2021/03/22 14:33:11;;;;;;;3.30;2.10;;;;;;;;;;5113592;28;20047;-78
2021/03/22 14:35:37;;;;;;;2.55;1.50;;;;;;;;;;5113554;28;20046;-77
2021/03/22 14:38:03;;;;;;;5.68;1.73;;;;;;;;;;5116348;28;20035;-77
2021/03/22 14:40:29;;;;;;;2.47;1.70;;;;;;;;;;5117164;28;20027;-77
2021/03/22 14:42:54;;;;;;;2.20;1.80;;;;;;;;;;5099464;28;20070;-77
2021/03/22 14:45:24;;;;;;;3.42;2.00;;;;;;;;;;5117958;28;20039;-77
2021/03/22 14:47:50;;;;;;;2.17;1.77;;;;;;;;;;5117607;28;20044;-77
2021/03/22 14:50:18;;;;;;;2.65;1.83;;;;;;;;;;5117455;28;20045;-78
2021/03/22 14:52:46;;;;;;;4.57;1.80;;;;;;;;;;5117650;28;20038;-77
2021/03/22 14:55:13;;;;;;;3.03;1.90;;;;;;;;;;5117407;28;20566;-77
2021/03/22 14:57:38;;;;;;;3.75;1.70;;;;;;;;;;5117467;28;20035;-77
2021/03/22 15:00:14;;;;;;;3.00;1.90;;;;;;;;;;5099308;28;20047;-77
2021/03/22 15:02:39;;;;;;;5.32;2.05;;;;;;;;;;5117318;28;20032;-77
2021/03/22 15:05:05;;;;;;;2.90;2.13;;;;;;;;;;5117302;28;20104;-77